Uralsk, Kazakhstan
Current Conditions -  °F | °C
As of 1:00 AM on Saturday 29 Nov 2014 (Local Time) from UARR Reporting Station
Clear Clear  
Wind Chill: -8°   Ceiling: Unl
Heat Index:   Visibility: 6mi
Dew Point: -2°   Wind: 4mph
Humidity: 85%   Direction: 350°N
Pressure: 30.65"   Gusts: NA
Location:  51.22°N, 51.36°E
Report Text: UARR 282100Z 35002MPS CAVOK M17/M19 Q1038 R04/CLRD70 NOSIG RMKQFE775/1034
Loading
Personal Weather Stations






























Interactive Weather Map New forecast layout! Learn more

10-Day Weather Forecast

Advertisements
Track Severe Weather on mobile